Permanente, California
Current Conditions -  °F | °C
As of 8:56 AM on Saturday 25 Oct 2014 (Local Time) from KNUQ Reporting Station
Light Rain Light Rain  
Wind Chill: 16°   Ceiling: 7500
Heat Index: 16°   Visibility: 6mi
Dew Point: 15°   Wind: 8mph
Humidity: 96%   Direction: 130°SE
Pressure: 30.03"   Gusts: NA
Location:  37.305°N, 122.094°W
Report Text: KNUQ 251556Z 13007KT 6SM -RA BR OVC075 16/15 A3003 RMK AO2 SLP170 P0001 T01560150
Loading
Personal Weather Stations






























Interactive Weather Map
Tropical Storm Tracking
New forecast layout! Learn more

10-Day Weather Forecast

Advertisements
Track Severe Weather on mobile